sensor_id;sensor_type;location;lat;lon;timestamp;P1;durP1;ratioP1;P2;durP2;ratioP2
37657;SDS011;23500;53.268;8.308;2023-02-28T00:01:29;1.92;;;1.33;;
37657;SDS011;23500;53.268;8.308;2023-02-28T00:03:55;3.25;;;1.45;;
37657;SDS011;23500;53.268;8.308;2023-02-28T00:06:21;1.90;;;1.42;;
37657;SDS011;23500;53.268;8.308;2023-02-28T00:08:47;2.47;;;1.80;;
37657;SDS011;23500;53.268;8.308;2023-02-28T00:11:13;1.43;;;1.33;;
37657;SDS011;23500;53.268;8.308;2023-02-28T00:13:42;1.70;;;1.30;;
37657;SDS011;23500;53.268;8.308;2023-02-28T00:16:12;2.30;;;1.60;;
37657;SDS011;23500;53.268;8.308;2023-02-28T00:18:40;2.20;;;1.33;;
37657;SDS011;23500;53.268;8.308;2023-02-28T00:21:06;2.45;;;1.80;;
37657;SDS011;23500;53.268;8.308;2023-02-28T00:23:32;1.90;;;1.40;;
37657;SDS011;23500;53.268;8.308;2023-02-28T00:25:58;1.83;;;1.60;;
37657;SDS011;23500;53.268;8.308;2023-02-28T00:28:24;2.30;;;1.70;;
37657;SDS011;23500;53.268;8.308;2023-02-28T00:30:50;2.60;;;1.73;;
37657;SDS011;23500;53.268;8.308;2023-02-28T00:33:15;2.17;;;1.73;;
37657;SDS011;23500;53.268;8.308;2023-02-28T00:35:41;2.57;;;1.70;;
37657;SDS011;23500;53.268;8.308;2023-02-28T00:38:07;3.30;;;1.95;;
37657;SDS011;23500;53.268;8.308;2023-02-28T00:40:33;2.03;;;1.80;;
37657;SDS011;23500;53.268;8.308;2023-02-28T00:42:58;2.87;;;1.53;;
37657;SDS011;23500;53.268;8.308;2023-02-28T00:45:24;2.00;;;1.80;;
37657;SDS011;23500;53.268;8.308;2023-02-28T00:47:50;1.92;;;1.60;;
37657;SDS011;23500;53.268;8.308;2023-02-28T00:50:17;1.98;;;1.67;;
37657;SDS011;23500;53.268;8.308;2023-02-28T00:52:45;1.45;;;1.33;;
37657;SDS011;23500;53.268;8.308;2023-02-28T00:55:11;2.40;;;1.63;;
37657;SDS011;23500;53.268;8.308;2023-02-28T00:57:37;1.77;;;1.50;;
37657;SDS011;23500;53.268;8.308;2023-02-28T01:00:03;1.88;;;1.55;;
37657;SDS011;23500;53.268;8.308;2023-02-28T01:02:29;2.28;;;1.60;;
37657;SDS011;23500;53.268;8.308;2023-02-28T01:04:55;2.13;;;1.58;;
37657;SDS011;23500;53.268;8.308;2023-02-28T01:07:21;1.63;;;1.42;;
37657;SDS011;23500;53.268;8.308;2023-02-28T01:09:47;2.00;;;1.50;;
37657;SDS011;23500;53.268;8.308;2023-02-28T01:12:14;1.90;;;1.60;;
37657;SDS011;23500;53.268;8.308;2023-02-28T01:14:40;2.35;;;1.60;;
37657;SDS011;23500;53.268;8.308;2023-02-28T01:17:06;1.98;;;1.50;;
37657;SDS011;23500;53.268;8.308;2023-02-28T01:19:32;2.60;;;1.52;;
37657;SDS011;23500;53.268;8.308;2023-02-28T01:22:00;1.65;;;1.40;;
37657;SDS011;23500;53.268;8.308;2023-02-28T01:24:27;1.42;;;1.17;;
37657;SDS011;23500;53.268;8.308;2023-02-28T01:26:53;1.58;;;1.40;;
37657;SDS011;23500;53.268;8.308;2023-02-28T01:29:18;1.75;;;1.30;;
37657;SDS011;23500;53.268;8.308;2023-02-28T01:31:44;2.08;;;1.52;;
37657;SDS011;23500;53.268;8.308;2023-02-28T01:34:10;1.65;;;1.30;;
37657;SDS011;23500;53.268;8.308;2023-02-28T01:36:35;1.60;;;1.35;;
37657;SDS011;23500;53.268;8.308;2023-02-28T01:39:01;1.52;;;1.25;;
37657;SDS011;23500;53.268;8.308;2023-02-28T01:41:28;1.48;;;1.38;;
37657;SDS011;23500;53.268;8.308;2023-02-28T01:46:21;1.75;;;1.40;;
37657;SDS011;23500;53.268;8.308;2023-02-28T01:48:51;1.63;;;1.40;;
37657;SDS011;23500;53.268;8.308;2023-02-28T01:51:20;1.90;;;1.40;;
37657;SDS011;23500;53.268;8.308;2023-02-28T01:53:49;1.40;;;1.27;;
37657;SDS011;23500;53.268;8.308;2023-02-28T01:56:20;1.85;;;1.30;;
37657;SDS011;23500;53.268;8.308;2023-02-28T01:58:51;2.30;;;1.88;;
37657;SDS011;23500;53.268;8.308;2023-02-28T02:01:18;2.22;;;1.48;;
37657;SDS011;23500;53.268;8.308;2023-02-28T02:03:51;1.90;;;1.40;;
37657;SDS011;23500;53.268;8.308;2023-02-28T02:06:23;1.80;;;1.42;;
37657;SDS011;23500;53.268;8.308;2023-02-28T02:08:52;1.67;;;1.52;;
37657;SDS011;23500;53.268;8.308;2023-02-28T02:11:19;1.75;;;1.45;;
37657;SDS011;23500;53.268;8.308;2023-02-28T02:22:35;2.40;;;1.58;;
37657;SDS011;23500;53.268;8.308;2023-02-28T02:39:14;1.50;;;1.38;;
37657;SDS011;23500;53.268;8.308;2023-02-28T02:41:51;1.35;;;1.20;;
37657;SDS011;23500;53.268;8.308;2023-02-28T02:47:19;1.38;;;1.27;;
37657;SDS011;23500;53.268;8.308;2023-02-28T02:49:50;1.50;;;1.40;;
37657;SDS011;23500;53.268;8.308;2023-02-28T02:52:21;2.08;;;1.55;;
37657;SDS011;23500;53.268;8.308;2023-02-28T02:54:50;1.73;;;1.60;;
37657;SDS011;23500;53.268;8.308;2023-02-28T02:57:24;1.60;;;1.50;;
37657;SDS011;23500;53.268;8.308;2023-02-28T03:00:02;2.38;;;1.60;;
37657;SDS011;23500;53.268;8.308;2023-02-28T03:02:30;2.30;;;1.48;;
37657;SDS011;23500;53.268;8.308;2023-02-28T03:05:00;1.70;;;1.50;;
37657;SDS011;23500;53.268;8.308;2023-02-28T03:07:29;1.65;;;1.45;;
37657;SDS011;23500;53.268;8.308;2023-02-28T03:09:55;2.05;;;1.50;;
37657;SDS011;23500;53.268;8.308;2023-02-28T03:12:32;1.65;;;1.40;;
37657;SDS011;23500;53.268;8.308;2023-02-28T03:15:16;1.70;;;1.42;;
37657;SDS011;23500;53.268;8.308;2023-02-28T03:18:00;1.42;;;1.25;;
37657;SDS011;23500;53.268;8.308;2023-02-28T03:20:38;1.50;;;1.40;;
37657;SDS011;23500;53.268;8.308;2023-02-28T03:23:18;1.85;;;1.55;;
37657;SDS011;23500;53.268;8.308;2023-02-28T03:25:56;1.27;;;1.17;;
37657;SDS011;23500;53.268;8.308;2023-02-28T03:28:36;1.55;;;1.45;;
37657;SDS011;23500;53.268;8.308;2023-02-28T03:34:14;1.95;;;1.63;;
37657;SDS011;23500;53.268;8.308;2023-02-28T03:36:45;1.50;;;1.40;;
37657;SDS011;23500;53.268;8.308;2023-02-28T03:42:19;1.50;;;1.33;;
37657;SDS011;23500;53.268;8.308;2023-02-28T03:44:49;1.42;;;1.30;;
37657;SDS011;23500;53.268;8.308;2023-02-28T03:47:25;1.52;;;1.30;;
37657;SDS011;23500;53.268;8.308;2023-02-28T03:50:15;1.30;;;1.20;;
37657;SDS011;23500;53.268;8.308;2023-02-28T03:52:47;1.95;;;1.30;;
37657;SDS011;23500;53.268;8.308;2023-02-28T03:55:54;1.27;;;1.17;;
37657;SDS011;23500;53.268;8.308;2023-02-28T04:01:08;1.60;;;1.50;;
37657;SDS011;23500;53.268;8.308;2023-02-28T04:03:40;1.85;;;1.50;;
37657;SDS011;23500;53.268;8.308;2023-02-28T04:06:07;1.63;;;1.20;;
37657;SDS011;23500;53.268;8.308;2023-02-28T04:08:38;1.50;;;1.40;;
37657;SDS011;23500;53.268;8.308;2023-02-28T04:11:05;2.05;;;1.40;;
37657;SDS011;23500;53.268;8.308;2023-02-28T04:13:38;1.20;;;1.10;;
37657;SDS011;23500;53.268;8.308;2023-02-28T04:16:07;2.28;;;1.52;;
37657;SDS011;23500;53.268;8.308;2023-02-28T04:18:40;1.33;;;1.23;;
37657;SDS011;23500;53.268;8.308;2023-02-28T04:21:08;1.50;;;1.20;;
37657;SDS011;23500;53.268;8.308;2023-02-28T04:23:35;1.58;;;1.48;;
37657;SDS011;23500;53.268;8.308;2023-02-28T04:26:00;1.50;;;1.40;;
37657;SDS011;23500;53.268;8.308;2023-02-28T04:28:26;2.42;;;1.50;;
37657;SDS011;23500;53.268;8.308;2023-02-28T04:31:10;1.58;;;1.42;;
37657;SDS011;23500;53.268;8.308;2023-02-28T04:33:36;1.65;;;1.50;;
37657;SDS011;23500;53.268;8.308;2023-02-28T04:36:05;1.67;;;1.50;;
37657;SDS011;23500;53.268;8.308;2023-02-28T04:38:34;1.30;;;1.17;;
37657;SDS011;23500;53.268;8.308;2023-02-28T04:41:01;1.50;;;1.40;;
37657;SDS011;23500;53.268;8.308;2023-02-28T04:43:27;1.55;;;1.40;;
37657;SDS011;23500;53.268;8.308;2023-02-28T04:45:54;2.30;;;1.50;;
37657;SDS011;23500;53.268;8.308;2023-02-28T04:48:23;1.45;;;1.17;;
37657;SDS011;23500;53.268;8.308;2023-02-28T04:50:51;1.90;;;1.52;;
37657;SDS011;23500;53.268;8.308;2023-02-28T04:53:17;1.95;;;1.50;;
37657;SDS011;23500;53.268;8.308;2023-02-28T04:55:43;1.70;;;1.60;;
37657;SDS011;23500;53.268;8.308;2023-02-28T04:58:09;1.70;;;1.40;;
37657;SDS011;23500;53.268;8.308;2023-02-28T05:00:35;2.28;;;1.45;;
37657;SDS011;23500;53.268;8.308;2023-02-28T05:03:01;1.20;;;1.10;;
37657;SDS011;23500;53.268;8.308;2023-02-28T05:05:26;2.03;;;1.40;;
37657;SDS011;23500;53.268;8.308;2023-02-28T05:07:52;1.40;;;1.30;;
37657;SDS011;23500;53.268;8.308;2023-02-28T05:10:20;1.63;;;1.40;;
37657;SDS011;23500;53.268;8.308;2023-02-28T05:12:46;1.52;;;1.40;;
37657;SDS011;23500;53.268;8.308;2023-02-28T05:15:13;1.73;;;1.30;;
37657;SDS011;23500;53.268;8.308;2023-02-28T05:17:40;1.60;;;1.50;;
37657;SDS011;23500;53.268;8.308;2023-02-28T05:20:07;1.50;;;1.40;;
37657;SDS011;23500;53.268;8.308;2023-02-28T05:22:35;1.77;;;1.50;;
37657;SDS011;23500;53.268;8.308;2023-02-28T05:25:05;1.90;;;1.70;;
37657;SDS011;23500;53.268;8.308;2023-02-28T05:27:31;1.75;;;1.60;;
37657;SDS011;23500;53.268;8.308;2023-02-28T05:29:58;1.77;;;1.55;;
37657;SDS011;23500;53.268;8.308;2023-02-28T05:32:24;1.95;;;1.60;;
37657;SDS011;23500;53.268;8.308;2023-02-28T05:34:50;2.47;;;2.00;;
37657;SDS011;23500;53.268;8.308;2023-02-28T05:37:15;3.17;;;2.00;;
37657;SDS011;23500;53.268;8.308;2023-02-28T05:39:41;2.53;;;2.05;;
37657;SDS011;23500;53.268;8.308;2023-02-28T05:42:07;2.47;;;2.28;;
37657;SDS011;23500;53.268;8.308;2023-02-28T05:44:34;2.05;;;1.85;;
37657;SDS011;23500;53.268;8.308;2023-02-28T05:47:00;3.38;;;2.03;;
37657;SDS011;23500;53.268;8.308;2023-02-28T05:49:26;2.17;;;1.70;;
37657;SDS011;23500;53.268;8.308;2023-02-28T05:51:51;1.58;;;1.48;;
37657;SDS011;23500;53.268;8.308;2023-02-28T05:54:17;1.70;;;1.60;;
37657;SDS011;23500;53.268;8.308;2023-02-28T05:56:43;1.75;;;1.45;;
37657;SDS011;23500;53.268;8.308;2023-02-28T05:59:11;1.92;;;1.70;;
37657;SDS011;23500;53.268;8.308;2023-02-28T06:01:39;1.92;;;1.58;;
37657;SDS011;23500;53.268;8.308;2023-02-28T06:04:07;1.70;;;1.60;;
37657;SDS011;23500;53.268;8.308;2023-02-28T06:06:35;1.50;;;1.33;;
37657;SDS011;23500;53.268;8.308;2023-02-28T06:09:02;2.10;;;1.55;;
37657;SDS011;23500;53.268;8.308;2023-02-28T06:11:28;1.85;;;1.50;;
37657;SDS011;23500;53.268;8.308;2023-02-28T06:13:55;2.65;;;1.50;;
37657;SDS011;23500;53.268;8.308;2023-02-28T06:16:29;3.30;;;1.40;;
37657;SDS011;23500;53.268;8.308;2023-02-28T06:18:59;1.98;;;1.77;;
37657;SDS011;23500;53.268;8.308;2023-02-28T06:21:27;2.42;;;1.70;;
37657;SDS011;23500;53.268;8.308;2023-02-28T06:23:53;2.63;;;1.65;;
37657;SDS011;23500;53.268;8.308;2023-02-28T06:26:20;1.73;;;1.63;;
37657;SDS011;23500;53.268;8.308;2023-02-28T06:28:46;2.80;;;1.80;;
37657;SDS011;23500;53.268;8.308;2023-02-28T06:31:13;2.08;;;1.60;;
37657;SDS011;23500;53.268;8.308;2023-02-28T06:33:40;2.35;;;1.73;;
37657;SDS011;23500;53.268;8.308;2023-02-28T06:36:07;3.17;;;1.60;;
37657;SDS011;23500;53.268;8.308;2023-02-28T06:38:34;3.28;;;1.90;;
37657;SDS011;23500;53.268;8.308;2023-02-28T06:41:01;2.85;;;2.00;;
37657;SDS011;23500;53.268;8.308;2023-02-28T06:43:31;2.75;;;2.30;;
37657;SDS011;23500;53.268;8.308;2023-02-28T06:46:00;3.67;;;2.70;;
37657;SDS011;23500;53.268;8.308;2023-02-28T06:48:27;4.60;;;2.80;;
37657;SDS011;23500;53.268;8.308;2023-02-28T06:51:06;4.15;;;2.42;;
37657;SDS011;23500;53.268;8.308;2023-02-28T06:53:34;3.40;;;2.20;;
37657;SDS011;23500;53.268;8.308;2023-02-28T06:56:07;4.22;;;2.20;;
37657;SDS011;23500;53.268;8.308;2023-02-28T06:58:34;5.38;;;2.40;;
37657;SDS011;23500;53.268;8.308;2023-02-28T07:01:00;4.18;;;2.28;;
37657;SDS011;23500;53.268;8.308;2023-02-28T07:03:26;4.55;;;2.80;;
37657;SDS011;23500;53.268;8.308;2023-02-28T07:05:52;5.10;;;2.92;;
37657;SDS011;23500;53.268;8.308;2023-02-28T07:08:18;6.10;;;3.22;;
37657;SDS011;23500;53.268;8.308;2023-02-28T07:10:43;5.68;;;2.70;;
37657;SDS011;23500;53.268;8.308;2023-02-28T07:13:10;6.72;;;3.15;;
37657;SDS011;23500;53.268;8.308;2023-02-28T07:15:36;5.65;;;2.80;;
37657;SDS011;23500;53.268;8.308;2023-02-28T07:18:02;5.75;;;3.00;;
37657;SDS011;23500;53.268;8.308;2023-02-28T07:20:28;5.97;;;3.20;;
37657;SDS011;23500;53.268;8.308;2023-02-28T07:22:54;6.35;;;3.17;;
37657;SDS011;23500;53.268;8.308;2023-02-28T07:25:23;7.13;;;3.15;;
37657;SDS011;23500;53.268;8.308;2023-02-28T07:27:50;7.93;;;3.38;;
37657;SDS011;23500;53.268;8.308;2023-02-28T07:30:15;6.15;;;3.13;;
37657;SDS011;23500;53.268;8.308;2023-02-28T07:32:42;5.88;;;3.10;;
37657;SDS011;23500;53.268;8.308;2023-02-28T07:35:07;7.50;;;3.47;;
37657;SDS011;23500;53.268;8.308;2023-02-28T07:37:33;7.03;;;3.10;;
37657;SDS011;23500;53.268;8.308;2023-02-28T07:40:03;6.15;;;3.53;;
37657;SDS011;23500;53.268;8.308;2023-02-28T07:42:32;10.65;;;4.05;;
37657;SDS011;23500;53.268;8.308;2023-02-28T07:44:57;6.82;;;3.58;;
37657;SDS011;23500;53.268;8.308;2023-02-28T07:47:24;4.97;;;3.17;;
37657;SDS011;23500;53.268;8.308;2023-02-28T07:49:50;7.18;;;3.58;;
37657;SDS011;23500;53.268;8.308;2023-02-28T07:52:15;8.40;;;3.60;;
37657;SDS011;23500;53.268;8.308;2023-02-28T07:54:41;7.97;;;3.78;;
37657;SDS011;23500;53.268;8.308;2023-02-28T07:57:07;6.63;;;3.55;;
37657;SDS011;23500;53.268;8.308;2023-02-28T07:59:33;8.25;;;3.63;;
37657;SDS011;23500;53.268;8.308;2023-02-28T08:01:58;9.30;;;3.70;;
37657;SDS011;23500;53.268;8.308;2023-02-28T08:04:24;6.78;;;3.35;;
37657;SDS011;23500;53.268;8.308;2023-02-28T08:06:50;8.77;;;3.83;;
37657;SDS011;23500;53.268;8.308;2023-02-28T08:09:19;9.35;;;3.60;;
37657;SDS011;23500;53.268;8.308;2023-02-28T08:11:45;6.15;;;3.40;;
37657;SDS011;23500;53.268;8.308;2023-02-28T08:14:10;8.45;;;3.92;;
37657;SDS011;23500;53.268;8.308;2023-02-28T08:16:36;6.95;;;3.72;;
37657;SDS011;23500;53.268;8.308;2023-02-28T08:19:02;9.02;;;3.80;;
37657;SDS011;23500;53.268;8.308;2023-02-28T08:21:28;9.98;;;3.47;;
37657;SDS011;23500;53.268;8.308;2023-02-28T08:23:53;6.35;;;3.22;;
37657;SDS011;23500;53.268;8.308;2023-02-28T08:26:19;8.35;;;3.88;;
37657;SDS011;23500;53.268;8.308;2023-02-28T08:28:45;7.72;;;3.65;;
37657;SDS011;23500;53.268;8.308;2023-02-28T08:31:12;7.28;;;3.30;;
37657;SDS011;23500;53.268;8.308;2023-02-28T08:33:39;6.20;;;3.05;;
37657;SDS011;23500;53.268;8.308;2023-02-28T08:36:05;7.75;;;3.00;;
37657;SDS011;23500;53.268;8.308;2023-02-28T08:38:32;8.02;;;3.67;;
37657;SDS011;23500;53.268;8.308;2023-02-28T08:40:58;7.60;;;3.85;;
37657;SDS011;23500;53.268;8.308;2023-02-28T08:43:25;5.47;;;3.05;;
37657;SDS011;23500;53.268;8.308;2023-02-28T08:45:52;9.32;;;3.78;;
37657;SDS011;23500;53.268;8.308;2023-02-28T08:48:18;8.43;;;3.47;;
37657;SDS011;23500;53.268;8.308;2023-02-28T08:50:44;5.90;;;2.95;;
37657;SDS011;23500;53.268;8.308;2023-02-28T08:53:09;8.38;;;4.03;;
37657;SDS011;23500;53.268;8.308;2023-02-28T08:55:35;6.53;;;3.83;;
37657;SDS011;23500;53.268;8.308;2023-02-28T08:58:00;6.28;;;3.60;;
37657;SDS011;23500;53.268;8.308;2023-02-28T09:00:26;7.82;;;3.58;;
37657;SDS011;23500;53.268;8.308;2023-02-28T09:02:52;9.65;;;3.67;;
37657;SDS011;23500;53.268;8.308;2023-02-28T09:05:19;8.23;;;3.55;;
37657;SDS011;23500;53.268;8.308;2023-02-28T09:07:45;7.10;;;4.10;;
37657;SDS011;23500;53.268;8.308;2023-02-28T09:10:10;6.75;;;3.10;;
37657;SDS011;23500;53.268;8.308;2023-02-28T09:12:36;7.85;;;3.50;;
37657;SDS011;23500;53.268;8.308;2023-02-28T09:15:02;5.32;;;3.22;;
37657;SDS011;23500;53.268;8.308;2023-02-28T09:17:28;6.90;;;3.42;;
37657;SDS011;23500;53.268;8.308;2023-02-28T09:19:54;6.85;;;3.33;;
37657;SDS011;23500;53.268;8.308;2023-02-28T09:22:19;8.57;;;3.58;;
37657;SDS011;23500;53.268;8.308;2023-02-28T09:24:46;6.18;;;3.17;;
37657;SDS011;23500;53.268;8.308;2023-02-28T09:27:11;7.60;;;3.75;;
37657;SDS011;23500;53.268;8.308;2023-02-28T09:29:37;5.95;;;3.33;;
37657;SDS011;23500;53.268;8.308;2023-02-28T09:32:03;7.03;;;3.20;;
37657;SDS011;23500;53.268;8.308;2023-02-28T09:34:30;8.55;;;3.55;;
37657;SDS011;23500;53.268;8.308;2023-02-28T09:36:56;7.75;;;3.33;;
37657;SDS011;23500;53.268;8.308;2023-02-28T09:39:22;7.63;;;3.45;;
37657;SDS011;23500;53.268;8.308;2023-02-28T09:41:48;5.50;;;3.15;;
37657;SDS011;23500;53.268;8.308;2023-02-28T09:44:32;5.95;;;3.13;;
37657;SDS011;23500;53.268;8.308;2023-02-28T09:47:44;8.82;;;3.40;;
37657;SDS011;23500;53.268;8.308;2023-02-28T09:49:58;7.75;;;3.38;;
37657;SDS011;23500;53.268;8.308;2023-02-28T09:52:32;7.38;;;3.45;;
37657;SDS011;23500;53.268;8.308;2023-02-28T09:55:08;5.90;;;3.10;;
37657;SDS011;23500;53.268;8.308;2023-02-28T09:57:47;6.50;;;3.30;;
37657;SDS011;23500;53.268;8.308;2023-02-28T10:00:20;6.13;;;3.30;;
37657;SDS011;23500;53.268;8.308;2023-02-28T10:05:52;6.57;;;3.20;;
37657;SDS011;23500;53.268;8.308;2023-02-28T10:09:01;5.35;;;3.00;;
37657;SDS011;23500;53.268;8.308;2023-02-28T10:11:29;5.97;;;3.00;;
37657;SDS011;23500;53.268;8.308;2023-02-28T10:14:00;5.82;;;3.47;;
37657;SDS011;23500;53.268;8.308;2023-02-28T10:16:32;6.40;;;2.70;;
37657;SDS011;23500;53.268;8.308;2023-02-28T10:22:20;5.53;;;2.78;;
37657;SDS011;23500;53.268;8.308;2023-02-28T10:24:52;6.70;;;2.83;;
37657;SDS011;23500;53.268;8.308;2023-02-28T10:27:25;6.78;;;3.10;;
37657;SDS011;23500;53.268;8.308;2023-02-28T10:29:55;7.43;;;3.30;;
37657;SDS011;23500;53.268;8.308;2023-02-28T10:32:24;7.53;;;2.88;;
37657;SDS011;23500;53.268;8.308;2023-02-28T10:34:59;6.57;;;3.00;;
37657;SDS011;23500;53.268;8.308;2023-02-28T10:37:38;6.53;;;2.90;;
37657;SDS011;23500;53.268;8.308;2023-02-28T10:40:31;4.85;;;2.95;;
37657;SDS011;23500;53.268;8.308;2023-02-28T10:45:29;6.70;;;3.00;;
37657;SDS011;23500;53.268;8.308;2023-02-28T10:48:05;4.90;;;2.70;;
37657;SDS011;23500;53.268;8.308;2023-02-28T10:50:52;4.25;;;2.70;;
37657;SDS011;23500;53.268;8.308;2023-02-28T11:01:24;5.63;;;2.70;;
37657;SDS011;23500;53.268;8.308;2023-02-28T11:04:00;5.30;;;2.95;;
37657;SDS011;23500;53.268;8.308;2023-02-28T11:06:32;5.60;;;2.83;;
37657;SDS011;23500;53.268;8.308;2023-02-28T11:09:00;4.70;;;2.38;;
37657;SDS011;23500;53.268;8.308;2023-02-28T11:11:29;4.57;;;2.67;;
37657;SDS011;23500;53.268;8.308;2023-02-28T11:14:05;5.22;;;2.75;;
37657;SDS011;23500;53.268;8.308;2023-02-28T11:16:42;6.70;;;2.90;;
37657;SDS011;23500;53.268;8.308;2023-02-28T11:19:15;4.75;;;2.58;;
37657;SDS011;23500;53.268;8.308;2023-02-28T11:21:57;5.25;;;2.85;;
37657;SDS011;23500;53.268;8.308;2023-02-28T11:24:30;6.25;;;2.70;;
37657;SDS011;23500;53.268;8.308;2023-02-28T11:27:01;5.38;;;2.60;;
37657;SDS011;23500;53.268;8.308;2023-02-28T11:29:28;4.38;;;2.53;;
37657;SDS011;23500;53.268;8.308;2023-02-28T11:34:37;4.75;;;2.30;;
37657;SDS011;23500;53.268;8.308;2023-02-28T11:37:03;5.25;;;2.72;;
37657;SDS011;23500;53.268;8.308;2023-02-28T11:39:31;4.22;;;2.38;;
37657;SDS011;23500;53.268;8.308;2023-02-28T11:47:36;4.40;;;2.13;;
37657;SDS011;23500;53.268;8.308;2023-02-28T11:52:56;5.18;;;2.20;;
37657;SDS011;23500;53.268;8.308;2023-02-28T11:55:36;5.70;;;2.63;;
37657;SDS011;23500;53.268;8.308;2023-02-28T11:58:38;3.72;;;2.10;;
37657;SDS011;23500;53.268;8.308;2023-02-28T12:01:28;4.60;;;2.35;;
37657;SDS011;23500;53.268;8.308;2023-02-28T12:28:41;4.72;;;2.28;;
37657;SDS011;23500;53.268;8.308;2023-02-28T12:34:03;3.95;;;2.28;;
37657;SDS011;23500;53.268;8.308;2023-02-28T12:36:39;4.90;;;2.10;;
37657;SDS011;23500;53.268;8.308;2023-02-28T12:39:19;3.85;;;2.17;;
37657;SDS011;23500;53.268;8.308;2023-02-28T12:41:56;3.97;;;2.08;;
37657;SDS011;23500;53.268;8.308;2023-02-28T12:47:13;4.10;;;2.20;;
37657;SDS011;23500;53.268;8.308;2023-02-28T12:49:43;4.85;;;2.28;;
37657;SDS011;23500;53.268;8.308;2023-02-28T12:52:11;3.50;;;1.73;;
37657;SDS011;23500;53.268;8.308;2023-02-28T13:00:16;3.13;;;1.60;;
37657;SDS011;23500;53.268;8.308;2023-02-28T13:06:02;3.47;;;1.83;;
37657;SDS011;23500;53.268;8.308;2023-02-28T13:13:57;3.92;;;1.92;;
37657;SDS011;23500;53.268;8.308;2023-02-28T13:16:25;2.38;;;1.60;;
37657;SDS011;23500;53.268;8.308;2023-02-28T13:18:50;3.03;;;1.70;;
37657;SDS011;23500;53.268;8.308;2023-02-28T13:34:31;3.65;;;1.60;;
37657;SDS011;23500;53.268;8.308;2023-02-28T13:50:14;3.13;;;1.50;;
37657;SDS011;23500;53.268;8.308;2023-02-28T13:58:37;3.50;;;1.38;;
37657;SDS011;23500;53.268;8.308;2023-02-28T14:01:17;1.80;;;1.45;;
37657;SDS011;23500;53.268;8.308;2023-02-28T14:07:18;3.10;;;1.85;;
37657;SDS011;23500;53.268;8.308;2023-02-28T14:09:57;2.65;;;1.40;;
37657;SDS011;23500;53.268;8.308;2023-02-28T14:18:15;2.05;;;1.35;;
37657;SDS011;23500;53.268;8.308;2023-02-28T14:21:21;2.70;;;1.50;;
37657;SDS011;23500;53.268;8.308;2023-02-28T14:32:35;2.08;;;1.45;;
37657;SDS011;23500;53.268;8.308;2023-02-28T14:38:20;2.22;;;1.48;;
37657;SDS011;23500;53.268;8.308;2023-02-28T14:40:51;2.58;;;1.50;;
37657;SDS011;23500;53.268;8.308;2023-02-28T14:43:22;2.13;;;1.30;;
37657;SDS011;23500;53.268;8.308;2023-02-28T14:45:50;2.25;;;1.30;;
37657;SDS011;23500;53.268;8.308;2023-02-28T14:48:19;3.00;;;1.50;;
37657;SDS011;23500;53.268;8.308;2023-02-28T14:50:50;1.67;;;1.30;;
37657;SDS011;23500;53.268;8.308;2023-02-28T14:53:18;1.75;;;1.40;;
37657;SDS011;23500;53.268;8.308;2023-02-28T14:55:47;2.78;;;1.50;;
37657;SDS011;23500;53.268;8.308;2023-02-28T14:58:24;2.70;;;1.50;;
37657;SDS011;23500;53.268;8.308;2023-02-28T15:00:53;1.58;;;1.30;;
37657;SDS011;23500;53.268;8.308;2023-02-28T15:03:31;2.10;;;1.50;;
37657;SDS011;23500;53.268;8.308;2023-02-28T15:05:58;2.08;;;1.20;;
37657;SDS011;23500;53.268;8.308;2023-02-28T15:08:29;1.88;;;1.15;;
37657;SDS011;23500;53.268;8.308;2023-02-28T15:11:00;2.13;;;1.42;;
37657;SDS011;23500;53.268;8.308;2023-02-28T15:13:44;2.00;;;1.42;;
37657;SDS011;23500;53.268;8.308;2023-02-28T15:16:13;2.10;;;1.30;;
37657;SDS011;23500;53.268;8.308;2023-02-28T15:18:59;2.45;;;1.40;;
37657;SDS011;23500;53.268;8.308;2023-02-28T15:21:37;2.17;;;1.30;;
37657;SDS011;23500;53.268;8.308;2023-02-28T15:24:08;3.60;;;1.55;;
37657;SDS011;23500;53.268;8.308;2023-02-28T15:26:42;2.65;;;1.35;;
37657;SDS011;23500;53.268;8.308;2023-02-28T15:29:20;1.63;;;1.23;;
37657;SDS011;23500;53.268;8.308;2023-02-28T15:31:59;1.77;;;1.10;;
37657;SDS011;23500;53.268;8.308;2023-02-28T15:34:40;2.28;;;1.35;;
37657;SDS011;23500;53.268;8.308;2023-02-28T15:42:39;2.05;;;1.38;;
37657;SDS011;23500;53.268;8.308;2023-02-28T15:45:04;2.55;;;1.45;;
37657;SDS011;23500;53.268;8.308;2023-02-28T15:47:30;1.65;;;1.10;;
37657;SDS011;23500;53.268;8.308;2023-02-28T15:55:08;1.88;;;1.20;;
37657;SDS011;23500;53.268;8.308;2023-02-28T15:57:38;1.17;;;1.08;;
37657;SDS011;23500;53.268;8.308;2023-02-28T16:00:05;1.98;;;1.30;;
37657;SDS011;23500;53.268;8.308;2023-02-28T16:02:36;1.55;;;1.25;;
37657;SDS011;23500;53.268;8.308;2023-02-28T16:07:34;2.08;;;1.10;;
37657;SDS011;23500;53.268;8.308;2023-02-28T16:10:05;1.48;;;1.20;;
37657;SDS011;23500;53.268;8.308;2023-02-28T16:12:34;1.83;;;1.38;;
37657;SDS011;23500;53.268;8.308;2023-02-28T16:15:02;1.25;;;1.08;;
37657;SDS011;23500;53.268;8.308;2023-02-28T16:17:34;1.85;;;1.17;;
37657;SDS011;23500;53.268;8.308;2023-02-28T16:20:13;1.60;;;1.00;;
37657;SDS011;23500;53.268;8.308;2023-02-28T16:22:42;2.08;;;1.10;;
37657;SDS011;23500;53.268;8.308;2023-02-28T16:25:14;1.80;;;1.27;;
37657;SDS011;23500;53.268;8.308;2023-02-28T16:27:42;2.05;;;1.10;;
37657;SDS011;23500;53.268;8.308;2023-02-28T16:30:15;1.35;;;1.15;;
37657;SDS011;23500;53.268;8.308;2023-02-28T16:32:45;1.60;;;1.08;;
37657;SDS011;23500;53.268;8.308;2023-02-28T16:35:11;1.67;;;1.10;;
37657;SDS011;23500;53.268;8.308;2023-02-28T16:37:38;1.35;;;1.02;;
37657;SDS011;23500;53.268;8.308;2023-02-28T16:40:04;1.85;;;1.23;;
37657;SDS011;23500;53.268;8.308;2023-02-28T16:42:31;1.67;;;1.30;;
37657;SDS011;23500;53.268;8.308;2023-02-28T16:44:57;1.60;;;1.20;;
37657;SDS011;23500;53.268;8.308;2023-02-28T16:47:23;1.23;;;1.10;;
37657;SDS011;23500;53.268;8.308;2023-02-28T16:49:51;2.42;;;1.40;;
37657;SDS011;23500;53.268;8.308;2023-02-28T16:52:17;1.73;;;1.08;;
37657;SDS011;23500;53.268;8.308;2023-02-28T16:54:43;1.58;;;1.20;;
37657;SDS011;23500;53.268;8.308;2023-02-28T16:57:41;1.67;;;1.08;;
37657;SDS011;23500;53.268;8.308;2023-02-28T17:00:00;1.98;;;1.30;;
37657;SDS011;23500;53.268;8.308;2023-02-28T17:02:27;2.22;;;1.40;;
37657;SDS011;23500;53.268;8.308;2023-02-28T17:04:53;1.90;;;1.50;;
37657;SDS011;23500;53.268;8.308;2023-02-28T17:07:19;2.30;;;1.40;;
37657;SDS011;23500;53.268;8.308;2023-02-28T17:09:44;1.40;;;1.10;;
37657;SDS011;23500;53.268;8.308;2023-02-28T17:12:10;1.42;;;1.30;;
37657;SDS011;23500;53.268;8.308;2023-02-28T17:14:36;2.17;;;1.10;;
37657;SDS011;23500;53.268;8.308;2023-02-28T17:17:04;1.23;;;1.00;;
37657;SDS011;23500;53.268;8.308;2023-02-28T17:19:30;2.50;;;1.35;;
37657;SDS011;23500;53.268;8.308;2023-02-28T17:21:56;2.05;;;1.40;;
37657;SDS011;23500;53.268;8.308;2023-02-28T17:24:21;1.67;;;1.20;;
37657;SDS011;23500;53.268;8.308;2023-02-28T17:26:47;2.70;;;1.50;;
37657;SDS011;23500;53.268;8.308;2023-02-28T17:29:18;2.20;;;1.30;;
37657;SDS011;23500;53.268;8.308;2023-02-28T17:31:44;2.13;;;1.45;;
37657;SDS011;23500;53.268;8.308;2023-02-28T17:34:10;2.03;;;1.58;;
37657;SDS011;23500;53.268;8.308;2023-02-28T17:36:42;2.60;;;1.60;;
37657;SDS011;23500;53.268;8.308;2023-02-28T17:39:12;2.90;;;1.60;;
37657;SDS011;23500;53.268;8.308;2023-02-28T17:41:40;2.72;;;1.50;;
37657;SDS011;23500;53.268;8.308;2023-02-28T17:44:06;2.58;;;1.60;;
37657;SDS011;23500;53.268;8.308;2023-02-28T17:46:33;2.00;;;1.55;;
37657;SDS011;23500;53.268;8.308;2023-02-28T17:48:59;1.92;;;1.45;;
37657;SDS011;23500;53.268;8.308;2023-02-28T17:51:26;2.40;;;1.80;;
37657;SDS011;23500;53.268;8.308;2023-02-28T17:53:51;2.83;;;1.60;;
37657;SDS011;23500;53.268;8.308;2023-02-28T17:56:21;3.15;;;1.83;;
37657;SDS011;23500;53.268;8.308;2023-02-28T17:58:48;3.28;;;1.98;;